Time;durP1;ratioP1;P1;durP2;ratioP2;P2;SDS_P1;SDS_P2;PMS_P1;PMS_P2;Temp;Humidity;BMP_temperature;BMP_pressure;BME280_temperature;BME280_humidity;BME280_pressure;Samples;Min_cycle;Max_cycle;Signal;HPM_P1;HPM_P2
2022/03/14 00:00:42;;;;;;;;;;;;;;;21.26;37.37;101720.66;5076451;28;4203;-59
2022/03/14 00:03:10;;;;;;;;;;;;;;;21.27;37.42;101721.41;5073842;28;5592;-59
2022/03/14 00:05:36;;;;;;;;;;;;;;;21.27;37.42;101716.38;5072933;28;4348;-59
2022/03/14 00:08:03;;;;;;;;;;;;;;;21.27;37.34;101722.13;5075659;28;4204;-59
2022/03/14 00:10:29;;;;;;;;;;;;;;;21.27;37.34;101710.63;5072211;28;4393;-59
2022/03/14 00:12:58;;;;;;;;;;;;;;;21.26;37.37;101720.66;5074541;28;5347;-59
2022/03/14 00:15:28;;;;;;;;;;;;;;;21.26;37.34;101723.53;5073223;28;4269;-59
2022/03/14 00:17:55;;;;;;;;;;;;;;;21.26;37.39;101720.66;5076334;28;4303;-59
2022/03/14 00:20:22;;;;;;;;;;;;;;;21.26;37.46;101719.91;5104283;27;4216;-59
2022/03/14 00:22:49;;;;;;;;;;;;;;;21.25;37.34;101707.63;5073491;28;4155;-59
2022/03/14 00:25:15;;;;;;;;;;;;;;;21.24;37.35;101719.78;5074017;28;4053;-59
2022/03/14 00:27:42;;;;;;;;;;;;;;;21.23;37.33;101719.03;5074415;28;4202;-59
2022/03/14 00:30:10;;;;;;;;;;;;;;;21.24;37.29;101716.91;5103450;27;4181;-59
2022/03/14 00:32:37;;;;;;;;;;;;;;;21.23;37.40;101712.53;5074939;27;4262;-59
2022/03/14 00:35:03;;;;;;;;;;;;;;;21.22;37.31;101714.66;5077261;28;4348;-59
2022/03/14 00:37:30;;;;;;;;;;;;;;;21.22;37.38;101713.91;5074168;28;5618;-59
2022/03/14 00:39:56;;;;;;;;;;;;;;;21.23;37.38;101713.25;5075469;28;3990;-59
2022/03/14 00:42:23;;;;;;;;;;;;;;;21.22;37.27;101714.66;5072508;28;4226;-59
2022/03/14 00:44:51;;;;;;;;;;;;;;;21.21;37.45;101723.91;5072113;28;4156;-59
2022/03/14 00:47:19;;;;;;;;;;;;;;;21.22;37.32;101714.66;5070635;27;4187;-59
2022/03/14 00:49:46;;;;;;;;;;;;;;;21.23;37.26;101710.38;5073762;28;4528;-59
2022/03/14 00:52:12;;;;;;;;;;;;;;;21.22;37.19;101720.41;5072609;28;4576;-60
2022/03/14 00:54:42;;;;;;;;;;;;;;;21.21;37.27;101707.41;5075759;28;4268;-59
2022/03/14 00:57:08;;;;;;;;;;;;;;;21.22;37.23;101714.66;5074114;28;4247;-59
2022/03/14 00:59:34;;;;;;;;;;;;;;;21.21;37.31;101701.66;5073386;28;4021;-59
2022/03/14 01:02:01;;;;;;;;;;;;;;;21.20;37.26;101700.13;5073273;28;4066;-59
2022/03/14 01:04:28;;;;;;;;;;;;;;;21.20;37.36;101708.78;5070748;28;4123;-59
2022/03/14 01:06:56;;;;;;;;;;;;;;;21.20;37.32;101699.41;5074018;28;4167;-59
2022/03/14 01:09:22;;;;;;;;;;;;;;;21.18;37.44;101702.16;5071804;28;4212;-60
2022/03/14 01:11:49;;;;;;;;;;;;;;;21.19;37.32;101703.66;5075186;28;5334;-59
2022/03/14 01:14:16;;;;;;;;;;;;;;;21.18;37.32;101700.03;5071313;28;4166;-59
2022/03/14 01:16:42;;;;;;;;;;;;;;;21.18;37.30;101691.38;5071889;28;4205;-59
2022/03/14 01:19:11;;;;;;;;;;;;;;;21.19;37.24;101703.66;5071601;28;6440;-59
2022/03/14 01:21:41;;;;;;;;;;;;;;;21.20;37.27;101700.13;5073174;28;4104;-59
2022/03/14 01:24:07;;;;;;;;;;;;;;;21.18;37.19;101711.53;5072894;28;4438;-59
2022/03/14 01:26:34;;;;;;;;;;;;;;;21.18;37.22;101713.69;5073208;28;4078;-59
2022/03/14 01:29:01;;;;;;;;;;;;;;;21.19;37.31;101709.41;5072209;28;4480;-59
2022/03/14 01:31:27;;;;;;;;;;;;;;;21.19;37.31;101721.69;5072891;28;4261;-59
2022/03/14 01:33:54;;;;;;;;;;;;;;;21.18;37.35;101714.41;5073095;28;4177;-59
2022/03/14 01:36:20;;;;;;;;;;;;;;;21.16;37.28;101717.19;5075156;28;4043;-59
2022/03/14 01:38:46;;;;;;;;;;;;;;;21.17;37.32;101718.69;5073326;28;4336;-59
2022/03/14 01:41:17;;;;;;;;;;;;;;;21.18;37.19;101714.41;5071033;28;4190;-59
2022/03/14 01:43:43;;;;;;;;;;;;;;;21.18;37.20;101725.19;5072679;28;4155;-59
2022/03/14 01:46:10;;;;;;;;;;;;;;;21.19;37.19;101709.41;5073202;28;5431;-59
2022/03/14 01:48:37;;;;;;;;;;;;;;;21.18;37.30;101728.09;5073211;28;4232;-60
2022/03/14 01:51:03;;;;;;;;;;;;;;;21.18;37.17;101720.19;5071959;28;4154;-59
2022/03/14 01:53:29;;;;;;;;;;;;;;;21.18;37.23;101737.47;5072243;27;5301;-59
2022/03/14 01:55:56;;;;;;;;;;;;;;;21.17;37.20;101727.34;5074641;28;4203;-59
2022/03/14 01:58:22;;;;;;;;;;;;;;;21.16;37.35;101734.47;5072663;28;4161;-59
2022/03/14 02:00:49;;;;;;;;;;;;;;;21.16;37.09;101734.47;5072861;28;4319;-59
2022/03/14 02:03:15;;;;;;;;;;;;;;;21.17;37.27;101729.47;5075657;28;4276;-59
2022/03/14 02:05:45;;;;;;;;;;;;;;;21.16;37.17;101733.72;5073758;28;3978;-59
2022/03/14 02:08:11;;;;;;;;;;;;;;;21.15;37.25;101732.97;5071825;28;4968;-59
2022/03/14 02:10:38;;;;;;;;;;;;;;;21.16;37.13;101722.94;5071587;28;5465;-59
2022/03/14 02:13:05;;;;;;;;;;;;;;;21.17;37.19;101727.34;5075960;28;4174;-60
2022/03/14 02:15:34;;;;;;;;;;;;;;;21.16;37.15;101722.94;5078358;28;4038;-59
2022/03/14 02:18:00;;;;;;;;;;;;;;;21.16;37.10;101733.72;5077296;27;4143;-59
2022/03/14 02:20:27;;;;;;;;;;;;;;;21.15;37.24;101724.34;5075748;28;5319;-59
2022/03/14 02:22:53;;;;;;;;;;;;;;;21.16;37.14;101722.19;5075324;28;4318;-58
2022/03/14 02:25:19;;;;;;;;;;;;;;;21.15;37.15;101714.97;5075353;28;4396;-58
2022/03/14 02:27:46;;;;;;;;;;;;;;;21.15;37.23;101721.47;5074228;28;4168;-58
2022/03/14 02:30:12;;;;;;;;;;;;;;;21.16;37.26;101722.94;5072583;28;4567;-58
2022/03/14 02:32:41;;;;;;;;;;;;;;;21.15;37.03;101721.47;5076420;28;4081;-58
2022/03/14 02:35:08;;;;;;;;;;;;;;;21.17;37.29;101727.34;5075690;28;4240;-58
2022/03/14 02:37:34;;;;;;;;;;;;;;;21.17;37.20;101730.22;5075079;28;4337;-58
2022/03/14 02:40:01;;;;;;;;;;;;;;;21.19;37.03;101727.47;5079856;28;5314;-59
2022/03/14 02:42:27;;;;;;;;;;;;;;;21.17;37.21;101718.69;5080158;28;4391;-58
2022/03/14 02:44:53;;;;;;;;;;;;;;;21.16;36.99;101728.72;5077950;28;4238;-58
2022/03/14 02:47:20;;;;;;;;;;;;;;;21.15;37.05;101735.88;5076543;28;4312;-58
2022/03/14 02:49:46;;;;;;;;;;;;;;;21.17;37.16;101732.34;5073421;28;4286;-58
2022/03/14 02:52:12;;;;;;;;;;;;;;;21.15;37.04;101735.88;5072139;28;4229;-58
2022/03/14 02:54:41;;;;;;;;;;;;;;;21.17;37.12;101738.13;5078021;27;5287;-58
2022/03/14 02:57:09;;;;;;;;;;;;;;;21.15;36.97;101732.97;5073971;28;4207;-59
2022/03/14 02:59:35;;;;;;;;;;;;;;;21.16;37.09;101733.72;5074872;28;4662;-58
2022/03/14 03:02:02;;;;;;;;;;;;;;;21.16;37.10;101737.34;5077113;28;6237;-58
2022/03/14 03:04:28;;;;;;;;;;;;;;;21.15;37.11;101735.88;5075030;28;5264;-58
2022/03/14 03:06:54;;;;;;;;;;;;;;;21.15;37.17;101738.75;5073730;28;4250;-59
2022/03/14 03:09:21;;;;;;;;;;;;;;;21.13;37.18;101747.25;5073568;28;5457;-58
2022/03/14 03:11:47;;;;;;;;;;;;;;;21.14;37.23;101751.63;5072548;28;4065;-58
2022/03/14 03:14:14;;;;;;;;;;;;;;;21.12;37.25;101740.75;5074482;28;4098;-58
2022/03/14 03:16:40;;;;;;;;;;;;;;;21.13;37.18;101745.13;5075470;28;4527;-59
2022/03/14 03:19:08;;;;;;;;;;;;;;;21.15;37.14;101752.41;5075199;28;4531;-58
2022/03/14 03:21:39;;;;;;;;;;;;;;;21.14;37.05;101754.50;5076247;28;4079;-58
2022/03/14 03:24:07;;;;;;;;;;;;;;;21.14;37.21;101748.75;5072767;28;5114;-58
2022/03/14 03:26:35;;;;;;;;;;;;;;;21.14;37.05;101748.75;5077364;28;4158;-58
2022/03/14 03:29:01;;;;;;;;;;;;;;;21.13;37.06;101747.25;5074637;28;4109;-59
2022/03/14 03:31:28;;;;;;;;;;;;;;;21.11;37.12;101745.00;5075147;28;4504;-58
2022/03/14 03:33:55;;;;;;;;;;;;;;;21.12;37.01;101751.53;5075011;28;4525;-59
2022/03/14 03:36:21;;;;;;;;;;;;;;;21.12;37.16;101751.53;5074053;28;4438;-58
2022/03/14 03:38:48;;;;;;;;;;;;;;;21.10;37.09;101748.53;5074862;28;4535;-58
2022/03/14 03:41:14;;;;;;;;;;;;;;;21.08;37.13;101751.31;5074775;28;4323;-58
2022/03/14 03:43:40;;;;;;;;;;;;;;;21.08;37.19;101751.31;5077433;28;4231;-58
2022/03/14 03:46:07;;;;;;;;;;;;;;;21.08;37.04;101752.03;5074961;28;4180;-58
2022/03/14 03:48:33;;;;;;;;;;;;;;;21.08;37.20;101754.19;5075124;28;4153;-58
2022/03/14 03:51:01;;;;;;;;;;;;;;;21.09;37.20;101758.53;5072392;28;4319;-59
2022/03/14 03:53:27;;;;;;;;;;;;;;;21.10;37.20;101760.06;5076742;28;4261;-58
2022/03/14 03:55:53;;;;;;;;;;;;;;;21.11;37.01;101761.53;5074570;28;4241;-59
2022/03/14 03:58:22;;;;;;;;;;;;;;;21.12;37.05;101763.81;5074423;28;4206;-58
2022/03/14 04:00:49;;;;;;;;;;;;;;;21.13;37.00;101770.31;5076570;28;4234;-57
2022/03/14 04:03:20;;;;;;;;;;;;;;;21.13;37.14;101770.31;5075635;28;5490;-58
2022/03/14 04:05:47;;;;;;;;;;;;;;;21.13;37.09;101765.28;5076327;28;4246;-58
2022/03/14 04:08:13;;;;;;;;;;;;;;;21.13;37.05;101770.31;5071754;28;5347;-58
2022/03/14 04:10:41;;;;;;;;;;;;;;;21.13;37.24;101765.28;5075294;28;4267;-58
2022/03/14 04:13:08;;;;;;;;;;;;;;;21.12;37.24;101763.81;5075423;28;4176;-58
2022/03/14 04:15:46;;;;;;;;;;;;;;;21.13;37.16;101771.03;5073585;28;4222;-58
2022/03/14 04:18:13;;;;;;;;;;;;;;;21.11;37.31;101773.81;5074351;28;4185;-58
2022/03/14 04:20:41;;;;;;;;;;;;;;;21.11;37.34;101773.06;5073672;28;4262;-58
2022/03/14 04:23:07;;;;;;;;;;;;;;;21.12;37.35;101780.34;5072695;28;6466;-58
2022/03/14 04:25:34;;;;;;;;;;;;;;;21.10;37.46;101780.97;5073265;28;4430;-58
2022/03/14 04:28:06;;;;;;;;;;;;;;;21.11;37.46;101778.81;5073585;28;4247;-58
2022/03/14 04:30:32;;;;;;;;;;;;;;;21.09;37.51;101772.94;5075647;28;4290;-58
2022/03/14 04:32:59;;;;;;;;;;;;;;;21.15;37.44;101790.59;5069901;28;4372;-60
2022/03/14 04:35:25;;;;;;;;;;;;;;;20.96;37.68;101782.25;5075438;28;5315;-58
2022/03/14 04:37:51;;;;;;;;;;;;;;;20.94;37.56;101777.13;5069387;28;5488;-59
2022/03/14 04:40:18;;;;;;;;;;;;;;;20.99;37.27;101778.13;5076022;28;4209;-58
2022/03/14 04:42:44;;;;;;;;;;;;;;;21.03;37.22;101784.13;5074827;28;4095;-58
2022/03/14 04:45:11;;;;;;;;;;;;;;;21.06;37.33;101789.34;5071556;28;4163;-58
2022/03/14 04:47:38;;;;;;;;;;;;;;;21.08;37.35;101794.50;5075801;28;4100;-58
2022/03/14 04:50:04;;;;;;;;;;;;;;;21.08;37.46;101797.38;5073080;28;4342;-58
2022/03/14 04:52:33;;;;;;;;;;;;;;;21.08;37.34;101785.84;5073442;28;4325;-59
2022/03/14 04:54:59;;;;;;;;;;;;;;;21.09;37.36;101793.09;5073878;28;5384;-62
2022/03/14 04:57:26;;;;;;;;;;;;;;;21.09;37.52;101793.09;5075350;28;4332;-58
2022/03/14 04:59:52;;;;;;;;;;;;;;;21.08;37.54;101797.38;5075347;28;4387;-58
2022/03/14 05:02:22;;;;;;;;;;;;;;;21.07;37.56;101790.88;5078358;28;4193;-58
2022/03/14 05:04:52;;;;;;;;;;;;;;;21.08;37.45;101791.63;5080478;28;4170;-58
2022/03/14 05:07:19;;;;;;;;;;;;;;;21.07;37.58;101808.16;5076360;28;4175;-58
2022/03/14 05:09:45;;;;;;;;;;;;;;;21.06;37.51;101800.88;5077451;28;4094;-59
2022/03/14 05:12:11;;;;;;;;;;;;;;;21.08;37.70;101803.88;5076727;28;5446;-58
2022/03/14 05:14:38;;;;;;;;;;;;;;;21.07;37.60;101801.63;5077247;28;4141;-59
2022/03/14 05:17:05;;;;;;;;;;;;;;;21.08;37.64;101803.13;5076838;28;4171;-59
2022/03/14 05:19:32;;;;;;;;;;;;;;;21.06;37.54;101805.91;5077036;28;5251;-58
2022/03/14 05:21:58;;;;;;;;;;;;;;;21.08;37.62;101808.91;5072972;28;5298;-59
2022/03/14 05:24:25;;;;;;;;;;;;;;;21.13;37.67;101810.63;5078336;28;4187;-59
2022/03/14 05:26:53;;;;;;;;;;;;;;;21.12;37.90;101809.13;5078073;28;4196;-59
2022/03/14 05:29:20;;;;;;;;;;;;;;;21.09;37.75;101798.84;5076251;28;5276;-58
2022/03/14 05:31:46;;;;;;;;;;;;;;;21.11;37.86;101802.59;5074145;28;4447;-59
2022/03/14 05:34:13;;;;;;;;;;;;;;;21.13;37.85;101801.97;5077059;28;4184;-59
2022/03/14 05:36:40;;;;;;;;;;;;;;;21.15;38.02;101807.13;5072951;28;4218;-59
2022/03/14 05:39:07;;;;;;;;;;;;;;;21.13;38.10;101801.97;5071949;28;4948;-59
2022/03/14 05:41:33;;;;;;;;;;;;;;;21.13;38.00;101796.22;5073694;28;4240;-59
2022/03/14 05:43:59;;;;;;;;;;;;;;;21.14;38.06;101794.81;5073385;28;4215;-59
2022/03/14 05:46:26;;;;;;;;;;;;;;;21.12;38.00;101800.50;5073250;28;5110;-59
2022/03/14 05:48:52;;;;;;;;;;;;;;;21.12;38.07;101800.50;5072043;28;5346;-59
2022/03/14 05:51:19;;;;;;;;;;;;;;;21.11;38.11;101796.84;5073417;28;4325;-59
2022/03/14 05:53:49;;;;;;;;;;;;;;;21.10;38.18;101806.13;5071019;28;4148;-59
2022/03/14 05:56:15;;;;;;;;;;;;;;;21.09;38.21;101810.38;5073812;28;4230;-59
2022/03/14 05:58:41;;;;;;;;;;;;;;;21.03;37.90;101818.69;5063841;28;4248;-62
2022/03/14 06:01:08;;;;;;;;;;;;;;;20.40;35.83;101819.22;5070117;28;4256;-60
2022/03/14 06:03:34;;;;;;;;;;;;;;;20.68;35.97;101833.88;5073568;28;5538;-61
2022/03/14 06:06:01;;;;;;;;;;;;;;;20.84;36.81;101826.22;5071065;28;4233;-60
2022/03/14 06:08:29;;;;;;;;;;;;;;;20.94;37.14;101817.44;5070593;28;4117;-59
2022/03/14 06:10:56;;;;;;;;;;;;;;;21.09;37.56;101822.66;5071829;28;4409;-62
2022/03/14 06:13:22;;;;;;;;;;;;;;;21.30;37.44;101823.84;5068348;28;4213;-61
2022/03/14 06:15:48;;;;;;;;;;;;;;;21.31;37.29;101820.31;5066399;28;4160;-61
2022/03/14 06:18:15;;;;;;;;;;;;;;;21.36;37.32;101820.56;5067284;27;4128;-60
2022/03/14 06:20:41;;;;;;;;;;;;;;;21.31;36.73;101814.56;5074333;28;4419;-60
2022/03/14 06:23:08;;;;;;;;;;;;;;;21.34;37.39;101824.06;5077080;28;5475;-60
2022/03/14 06:25:37;;;;;;;;;;;;;;;21.36;36.97;101820.56;5076719;28;4149;-61
2022/03/14 06:28:03;;;;;;;;;;;;;;;21.33;37.09;101811.81;5075429;28;4230;-60
2022/03/14 06:30:30;;;;;;;;;;;;;;;21.38;37.34;101824.31;5075086;28;4231;-72
2022/03/14 06:32:57;;;;;;;;;;;;;;;21.51;37.06;101831.56;5076509;28;5521;-69
2022/03/14 06:35:23;;;;;;;;;;;;;;;21.53;37.35;101828.78;5073906;28;4028;-63
2022/03/14 06:37:50;;;;;;;;;;;;;;;21.46;37.23;101836.34;5070976;28;4035;-65
2022/03/14 06:40:16;;;;;;;;;;;;;;;21.36;37.27;101827.06;5073926;27;4257;-67
2022/03/14 06:42:50;;;;;;;;;;;;;;;21.41;37.25;101833.84;5075126;28;4347;-69
2022/03/14 06:45:22;;;;;;;;;;;;;;;21.42;36.78;101846.88;5072911;28;4155;-72
2022/03/14 06:47:49;;;;;;;;;;;;;;;21.42;36.83;101846.88;5073859;28;4165;-76
2022/03/14 06:50:16;;;;;;;;;;;;;;;21.43;36.48;101854.13;5066852;27;4326;-66
2022/03/14 06:52:42;;;;;;;;;;;;;;;21.42;36.60;101855.53;5074906;28;5241;-69
2022/03/14 06:55:10;;;;;;;;;;;;;;;21.41;36.57;101856.91;5076231;28;4673;-72
2022/03/14 06:57:38;;;;;;;;;;;;;;;21.41;36.52;101866.28;5074964;28;4290;-68
2022/03/14 07:00:04;;;;;;;;;;;;;;;21.43;36.41;101871.44;5079225;28;4167;-67
2022/03/14 07:02:31;;;;;;;;;;;;;;;21.42;36.43;101867.81;5079439;28;5620;-67
2022/03/14 07:04:57;;;;;;;;;;;;;;;21.43;36.16;101868.53;5078631;28;5672;-68
2022/03/14 07:07:24;;;;;;;;;;;;;;;21.45;36.20;101862.91;5077895;28;4591;-69
2022/03/14 07:09:50;;;;;;;;;;;;;;;21.43;35.87;101877.19;5079387;28;5503;-69
2022/03/14 07:12:16;;;;;;;;;;;;;;;21.45;35.84;101875.16;5079630;28;4265;-70
2022/03/14 07:14:43;;;;;;;;;;;;;;;21.45;36.00;101885.97;5077688;28;5537;-69
2022/03/14 07:17:09;;;;;;;;;;;;;;;21.50;35.41;101873.28;5077005;28;4671;-73
2022/03/14 07:19:35;;;;;;;;;;;;;;;21.50;35.72;101876.91;5079252;28;4670;-73
2022/03/14 07:22:03;;;;;;;;;;;;;;;21.44;35.86;101879.44;5079583;28;4306;-75
2022/03/14 07:24:30;;;;;;;;;;;;;;;21.51;35.68;101886.31;5079137;28;4077;-61
2022/03/14 07:26:56;;;;;;;;;;;;;;;21.52;35.65;101884.91;5076029;28;7207;-69
2022/03/14 07:29:22;;;;;;;;;;;;;;;21.55;35.62;101883.66;5079590;28;4768;-65
2022/03/14 07:31:49;;;;;;;;;;;;;;;21.53;35.94;101875.66;5078103;28;4082;-69
2022/03/14 07:34:15;;;;;;;;;;;;;;;21.62;36.46;101881.88;5077081;28;4558;-65
2022/03/14 07:36:42;;;;;;;;;;;;;;;21.57;36.32;101886.66;5078162;28;4368;-65
2022/03/14 07:39:08;;;;;;;;;;;;;;;21.57;36.43;101897.44;5079297;28;5683;-65
2022/03/14 07:41:36;;;;;;;;;;;;;;;21.60;36.63;101891.16;5080876;28;4520;-67
2022/03/14 07:44:03;;;;;;;;;;;;;;;21.64;36.70;101891.38;5078222;28;4137;-69
2022/03/14 07:46:31;;;;;;;;;;;;;;;21.69;36.65;101886.59;5078618;28;4035;-66
2022/03/14 07:48:58;;;;;;;;;;;;;;;21.70;36.79;101888.84;5078874;28;4070;-67
2022/03/14 07:51:24;;;;;;;;;;;;;;;21.70;36.72;101894.63;5076989;28;4610;-66
2022/03/14 07:53:50;;;;;;;;;;;;;;;21.69;36.93;101892.34;5079235;28;5667;-67
2022/03/14 07:56:19;;;;;;;;;;;;;;;21.79;36.88;101900.88;5077615;28;4143;-72
2022/03/14 07:58:47;;;;;;;;;;;;;;;21.82;37.02;101899.59;5078698;28;5757;-70
2022/03/14 08:01:13;;;;;;;;;;;;;;;21.87;36.76;101890.50;5078258;28;4491;-70
2022/03/14 08:03:40;;;;;;;;;;;;;;;21.91;36.89;101890.00;5079722;28;4165;-75
2022/03/14 08:06:09;;;;;;;;;;;;;;;21.84;36.95;101886.03;5077699;28;4484;-69
2022/03/14 08:08:35;;;;;;;;;;;;;;;21.90;36.84;101897.16;5078407;28;5789;-69
2022/03/14 08:11:04;;;;;;;;;;;;;;;21.94;37.12;101894.50;5076592;28;4688;-68
2022/03/14 08:13:32;;;;;;;;;;;;;;;22.00;37.13;101891.97;5078438;28;5601;-67
2022/03/14 08:15:58;;;;;;;;;;;;;;;22.03;37.30;101895.72;5079021;28;4222;-65
2022/03/14 08:18:25;;;;;;;;;;;;;;;21.99;37.18;101898.34;5077999;28;4329;-64
2022/03/14 08:20:56;;;;;;;;;;;;;;;21.94;37.35;101888.72;5079354;28;5802;-65
2022/03/14 08:23:22;;;;;;;;;;;;;;;21.80;37.05;101887.94;5078390;28;4475;-70
2022/03/14 08:25:49;;;;;;;;;;;;;;;21.78;37.10;101887.81;5075738;28;4215;-68
2022/03/14 08:28:15;;;;;;;;;;;;;;;21.75;37.25;101887.69;5076728;28;4239;-64
2022/03/14 08:30:42;;;;;;;;;;;;;;;21.74;37.17;101888.34;5078394;28;4252;-67
2022/03/14 08:33:08;;;;;;;;;;;;;;;21.73;36.98;101889.72;5078489;28;5792;-67
2022/03/14 08:35:34;;;;;;;;;;;;;;;21.74;37.31;101885.47;5078040;28;5695;-63
2022/03/14 08:38:01;;;;;;;;;;;;;;;21.72;37.30;101883.22;5076616;28;4369;-62
2022/03/14 08:40:28;;;;;;;;;;;;;;;21.73;37.51;101887.56;5076241;28;5634;-68
2022/03/14 08:42:54;;;;;;;;;;;;;;;20.78;33.87;101897.84;5077666;28;4252;-68
2022/03/14 08:45:23;;;;;;;;;;;;;;;20.53;32.16;101894.81;5076447;28;4225;-72
2022/03/14 08:47:49;;;;;;;;;;;;;;;20.97;31.00;101884.53;5076318;28;4020;-71
2022/03/14 08:50:16;;;;;;;;;;;;;;;21.24;31.94;101878.22;5074614;28;4553;-71
2022/03/14 08:52:45;;;;;;;;;;;;;;;21.36;34.35;101883.94;5077393;28;4230;-68
2022/03/14 08:55:12;;;;;;;;;;;;;;;21.42;35.24;101881.47;5076202;28;5236;-70
2022/03/14 08:57:39;;;;;;;;;;;;;;;21.45;35.95;101885.97;5074823;28;4235;-68
2022/03/14 09:00:07;;;;;;;;;;;;;;;21.46;36.22;101887.44;5076721;28;5656;-70
2022/03/14 09:02:34;;;;;;;;;;;;;;;21.47;35.89;101883.19;5076365;28;4727;-72
2022/03/14 09:05:01;;;;;;;;;;;;;;;21.49;36.32;101891.97;5075963;28;5863;-67
2022/03/14 09:07:27;;;;;;;;;;;;;;;21.55;36.08;101883.66;5076102;28;4726;-69
2022/03/14 09:09:54;;;;;;;;;;;;;;;21.64;36.19;101879.84;5073384;28;5248;-60
2022/03/14 09:12:20;;;;;;;;;;;;;;;21.55;35.96;101880.75;5078256;28;5679;-65
2022/03/14 09:14:47;;;;;;;;;;;;;;;21.46;33.68;101875.91;5076011;28;5754;-63
2022/03/14 09:17:13;;;;;;;;;;;;;;;21.83;33.79;101873.00;5076492;28;4650;-62
2022/03/14 09:19:40;;;;;;;;;;;;;;;21.99;33.82;101861.63;5077366;28;4270;-62
2022/03/14 09:22:10;;;;;;;;;;;;;;;22.06;34.38;101863.47;5075694;28;4703;-61
2022/03/14 09:24:36;;;;;;;;;;;;;;;22.12;34.92;101852.25;5078441;28;4151;-61
2022/03/14 09:27:03;;;;;;;;;;;;;;;22.18;35.28;101858.34;5074710;28;4655;-62
2022/03/14 09:29:30;;;;;;;;;;;;;;;22.18;35.18;101860.50;5077345;28;4788;-62
2022/03/14 09:31:57;;;;;;;;;;;;;;;22.19;35.40;101867.75;5077716;27;4398;-62
2022/03/14 09:34:24;;;;;;;;;;;;;;;22.17;35.58;101870.53;5076202;28;4076;-63
2022/03/14 09:36:50;;;;;;;;;;;;;;;22.20;36.16;101871.41;5076157;28;4171;-62
2022/03/14 09:39:17;;;;;;;;;;;;;;;22.25;36.18;101867.38;5075225;28;4231;-63
2022/03/14 09:41:45;;;;;;;;;;;;;;;22.27;36.11;101867.50;5073635;28;4179;-64
2022/03/14 09:44:13;;;;;;;;;;;;;;;22.27;36.06;101867.50;5076219;28;4557;-63
2022/03/14 09:46:40;;;;;;;;;;;;;;;22.31;36.12;101870.56;5075883;28;4045;-63
2022/03/14 09:49:09;;;;;;;;;;;;;;;22.30;36.07;101860.44;5075589;28;4575;-62
2022/03/14 09:51:39;;;;;;;;;;;;;;;22.33;35.96;101862.03;5077153;28;5306;-62
2022/03/14 09:54:07;;;;;;;;;;;;;;;22.18;36.72;101869.16;5076735;28;4139;-60
2022/03/14 09:56:33;;;;;;;;;;;;;;;22.14;36.85;101872.56;5075817;28;4185;-61
2022/03/14 09:59:00;;;;;;;;;;;;;;;22.15;36.85;101874.06;5075504;28;5239;-66
2022/03/14 10:01:29;;;;;;;;;;;;;;;22.16;36.64;101875.56;5074648;27;4398;-65
2022/03/14 10:03:56;;;;;;;;;;;;;;;22.17;36.90;101879.94;5076796;28;4174;-65
2022/03/14 10:06:23;;;;;;;;;;;;;;;22.16;36.89;101875.56;5075355;28;4952;-64
2022/03/14 10:08:49;;;;;;;;;;;;;;;22.06;36.58;101875.00;5077068;28;5724;-66
2022/03/14 10:11:16;;;;;;;;;;;;;;;21.83;36.64;101869.34;5076639;27;5556;-65
2022/03/14 10:13:42;;;;;;;;;;;;;;;21.72;36.77;101874.56;5077716;28;5301;-66
2022/03/14 10:16:09;;;;;;;;;;;;;;;21.67;37.16;101864.19;5075463;28;4426;-65
2022/03/14 10:18:37;;;;;;;;;;;;;;;21.68;37.24;101862.78;5077037;28;4216;-65
2022/03/14 10:21:06;;;;;;;;;;;;;;;21.70;37.03;101877.31;5077414;28;5710;-66
2022/03/14 10:23:42;;;;;;;;;;;;;;;21.73;37.01;101870.28;5076737;28;4435;-67
2022/03/14 10:26:10;;;;;;;;;;;;;;;21.71;37.26;101873.03;5075928;28;4693;-66
2022/03/14 10:28:38;;;;;;;;;;;;;;;21.73;37.23;101881.81;5078379;28;4110;-65
2022/03/14 10:31:31;;;;;;;;;;;;;;;21.72;37.13;101877.44;5077298;28;4174;-64
2022/03/14 10:34:03;;;;;;;;;;;;;;;21.72;37.52;101874.56;5080871;28;4055;-63
2022/03/14 10:36:49;;;;;;;;;;;;;;;21.73;37.36;101887.56;5078325;28;4264;-63
2022/03/14 10:39:18;;;;;;;;;;;;;;;21.74;37.35;101888.34;5080024;28;5636;-62
2022/03/14 10:41:45;;;;;;;;;;;;;;;21.73;37.25;101892.59;5079023;27;4498;-62
2022/03/14 10:44:31;;;;;;;;;;;;;;;21.66;37.49;101891.50;5081866;28;4119;-65
2022/03/14 10:47:01;;;;;;;;;;;;;;;21.60;37.43;101896.94;5080249;28;4576;-61
2022/03/14 10:49:32;;;;;;;;;;;;;;;21.72;37.43;101891.84;5080184;28;4157;-60
2022/03/14 10:51:59;;;;;;;;;;;;;;;21.79;37.20;101895.09;5080935;28;4049;-61
2022/03/14 10:54:25;;;;;;;;;;;;;;;21.83;37.21;101901.06;5079786;28;4238;-60
2022/03/14 10:57:08;;;;;;;;;;;;;;;21.83;37.20;101901.06;5071507;28;5846;-60
2022/03/14 10:59:35;;;;;;;;;;;;;;;21.80;37.04;101902.34;5076085;28;4179;-60
2022/03/14 11:02:01;;;;;;;;;;;;;;;21.84;37.59;101897.56;5078986;28;4192;-60
2022/03/14 11:04:38;;;;;;;;;;;;;;;21.84;37.71;101902.59;5080268;27;4114;-61
2022/03/14 11:07:04;;;;;;;;;;;;;;;22.01;37.48;101904.97;5077975;28;4577;-61
2022/03/14 11:09:57;;;;;;;;;;;;;;;21.93;37.15;101910.31;5078080;28;4074;-62
2022/03/14 11:12:24;;;;;;;;;;;;;;;21.40;33.91;101907.25;5078551;28;4199;-59
2022/03/14 11:14:53;;;;;;;;;;;;;;;21.65;33.84;101910.19;5079728;27;4153;-62
2022/03/14 11:17:26;;;;;;;;;;;;;;;21.95;34.29;101919.09;5074746;27;4521;-62
2022/03/14 11:19:53;;;;;;;;;;;;;;;21.89;34.39;101927.38;5079152;28;4600;-62
2022/03/14 11:22:20;;;;;;;;;;;;;;;21.80;35.32;101919.66;5078977;28;4063;-62
2022/03/14 11:24:50;;;;;;;;;;;;;;;21.75;35.93;101927.31;5077157;28;4227;-61
2022/03/14 11:27:17;;;;;;;;;;;;;;;21.65;35.91;101909.44;5076218;28;4182;-62
2022/03/14 11:29:43;;;;;;;;;;;;;;;21.61;36.36;101918.59;5078819;28;4741;-60
2022/03/14 11:32:10;;;;;;;;;;;;;;;21.63;36.74;101923.75;5078892;28;4146;-60
2022/03/14 11:34:57;;;;;;;;;;;;;;;21.63;37.00;101920.84;5077194;28;5021;-60
2022/03/14 11:37:23;;;;;;;;;;;;;;;21.61;37.11;101918.59;5075951;28;5472;-61
2022/03/14 11:39:49;;;;;;;;;;;;;;;21.63;37.05;101917.97;5079508;28;5275;-60
2022/03/14 11:42:16;;;;;;;;;;;;;;;21.62;37.21;101911.44;5078694;28;4190;-60
2022/03/14 11:44:43;;;;;;;;;;;;;;;21.62;37.10;101911.44;5079130;28;4157;-61
2022/03/14 11:47:10;;;;;;;;;;;;;;;21.61;37.31;101912.84;5075862;28;5219;-60
2022/03/14 11:49:36;;;;;;;;;;;;;;;21.62;37.26;101911.44;5078248;28;5349;-62
2022/03/14 11:52:07;;;;;;;;;;;;;;;21.77;37.17;101909.41;5077932;28;4165;-71
2022/03/14 11:54:37;;;;;;;;;;;;;;;21.92;37.04;101914.56;5083994;28;4048;-64
2022/03/14 11:57:04;;;;;;;;;;;;;;;21.99;37.00;101925.09;5072099;28;4197;-64
2022/03/14 11:59:31;;;;;;;;;;;;;;;21.99;37.21;101916.44;5080226;28;5744;-65
2022/03/14 12:02:00;;;;;;;;;;;;;;;22.02;36.80;101915.16;5077409;28;4233;-64
2022/03/14 12:04:30;;;;;;;;;;;;;;;22.06;37.07;101921.16;5078464;28;4164;-63
2022/03/14 12:06:57;;;;;;;;;;;;;;;22.06;37.21;101918.28;5077221;28;4138;-63
2022/03/14 12:09:23;;;;;;;;;;;;;;;22.08;37.03;101920.50;5080024;28;4176;-63
2022/03/14 12:11:50;;;;;;;;;;;;;;;22.12;36.92;101920.72;5079323;28;4242;-63
2022/03/14 12:14:35;;;;;;;;;;;;;;;22.14;36.87;101918.72;5076340;28;4202;-64
2022/03/14 12:17:13;;;;;;;;;;;;;;;22.11;37.16;101925.75;5076595;28;5465;-65
2022/03/14 12:19:44;;;;;;;;;;;;;;;21.95;36.99;101925.59;5078534;28;4078;-61
2022/03/14 12:22:12;;;;;;;;;;;;;;;21.83;36.10;101929.91;5077503;28;5302;-62
2022/03/14 12:24:39;;;;;;;;;;;;;;;21.95;35.53;101936.38;5077423;28;5255;-63
2022/03/14 12:27:21;;;;;;;;;;;;;;;21.99;36.03;101936.63;5076327;28;4174;-62
2022/03/14 12:29:48;;;;;;;;;;;;;;;22.00;36.58;101946.03;5076877;28;4380;-63
2022/03/14 12:32:28;;;;;;;;;;;;;;;22.07;36.69;101948.59;5077184;28;5289;-62
2022/03/14 12:35:06;;;;;;;;;;;;;;;22.10;36.89;101947.31;5078389;27;5498;-61
2022/03/14 12:37:36;;;;;;;;;;;;;;;22.11;36.82;101945.22;5075579;28;5700;-63
2022/03/14 12:40:14;;;;;;;;;;;;;;;22.12;36.67;101944.56;5076315;28;6352;-62
2022/03/14 12:42:41;;;;;;;;;;;;;;;22.16;36.86;101944.03;5078011;28;4334;-64
2022/03/14 12:45:14;;;;;;;;;;;;;;;22.13;36.89;101943.19;5078319;28;4181;-63
2022/03/14 12:47:41;;;;;;;;;;;;;;;22.15;36.93;101940.41;5076476;28;4142;-63
2022/03/14 12:50:07;;;;;;;;;;;;;;;22.01;36.81;101933.81;5075252;28;5226;-62